sensor_id;sensor_type;location;lat;lon;timestamp;pressure;altitude;pressure_sealevel;temperature;humidity
36932;BME280;22847;42.654;23.370;2023-05-10T00:00:39;94954.09;;;10.56;93.24
36932;BME280;22847;42.654;23.370;2023-05-10T00:03:04;94779.13;;;9.25;95.81
36932;BME280;22847;42.654;23.370;2023-05-10T00:05:31;94971.66;;;10.35;96.83
36932;BME280;22847;42.654;23.370;2023-05-10T00:07:56;94965.81;;;9.63;98.81
36932;BME280;22847;42.654;23.370;2023-05-10T00:10:22;94940.25;;;9.87;100.00
36932;BME280;22847;42.654;23.370;2023-05-10T00:12:47;94930.16;;;9.54;97.59
36932;BME280;22847;42.654;23.370;2023-05-10T00:15:12;94960.94;;;9.79;98.47
36932;BME280;22847;42.654;23.370;2023-05-10T00:17:38;94779.00;;;8.77;97.55
36932;BME280;22847;42.654;23.370;2023-05-10T00:20:04;94964.38;;;9.79;96.33
36932;BME280;22847;42.654;23.370;2023-05-10T00:22:30;94898.38;;;9.60;95.42
36932;BME280;22847;42.654;23.370;2023-05-10T00:24:57;94795.53;;;8.76;96.19
36932;BME280;22847;42.654;23.370;2023-05-10T00:27:22;94961.44;;;9.63;97.01
36932;BME280;22847;42.654;23.370;2023-05-10T00:29:47;94956.97;;;9.45;99.08
36932;BME280;22847;42.654;23.370;2023-05-10T00:32:13;94947.75;;;9.71;98.20
36932;BME280;22847;42.654;23.370;2023-05-10T00:34:39;94935.97;;;9.67;96.85
36932;BME280;22847;42.654;23.370;2023-05-10T00:37:04;94965.09;;;10.01;98.69
36932;BME280;22847;42.654;23.370;2023-05-10T00:39:30;94960.25;;;9.77;97.29
36932;BME280;22847;42.654;23.370;2023-05-10T00:41:56;94927.88;;;9.70;98.11
36932;BME280;22847;42.654;23.370;2023-05-10T00:44:21;94954.16;;;10.07;96.63
36932;BME280;22847;42.654;23.370;2023-05-10T00:46:47;94955.19;;;10.35;94.74
36932;BME280;22847;42.654;23.370;2023-05-10T00:49:13;94809.44;;;9.35;96.04
36932;BME280;22847;42.654;23.370;2023-05-10T00:51:39;94922.38;;;10.61;92.67
36932;BME280;22847;42.654;23.370;2023-05-10T00:54:04;94900.16;;;10.66;90.44
36932;BME280;22847;42.654;23.370;2023-05-10T00:56:30;94944.31;;;10.20;93.46
36932;BME280;22847;42.654;23.370;2023-05-10T00:58:56;94826.88;;;9.14;95.57
36932;BME280;22847;42.654;23.370;2023-05-10T01:01:22;94948.59;;;10.31;94.01
36932;BME280;22847;42.654;23.370;2023-05-10T01:03:48;94960.38;;;10.25;94.62
36932;BME280;22847;42.654;23.370;2023-05-10T01:06:13;94739.31;;;8.44;96.57
36932;BME280;22847;42.654;23.370;2023-05-10T01:08:39;94742.38;;;8.49;97.00
36932;BME280;22847;42.654;23.370;2023-05-10T01:11:05;94781.19;;;8.51;99.13
36932;BME280;22847;42.654;23.370;2023-05-10T01:15:56;94927.09;;;9.39;99.83
36932;BME280;22847;42.654;23.370;2023-05-10T01:18:23;94898.38;;;9.60;97.38
36932;BME280;22847;42.654;23.370;2023-05-10T01:21:16;94914.50;;;9.94;94.58
36932;BME280;22847;42.654;23.370;2023-05-10T01:24:04;94941.19;;;10.16;94.34
36932;BME280;22847;42.654;23.370;2023-05-10T01:29:23;94937.09;;;9.83;91.96
36932;BME280;22847;42.654;23.370;2023-05-10T01:32:16;94934.78;;;9.40;94.63
36932;BME280;22847;42.654;23.370;2023-05-10T01:35:26;94938.81;;;9.64;92.04
36932;BME280;22847;42.654;23.370;2023-05-10T01:40:13;94925.06;;;9.92;93.25
36932;BME280;22847;42.654;23.370;2023-05-10T01:42:47;94908.84;;;9.29;92.76
36932;BME280;22847;42.654;23.370;2023-05-10T01:46:16;94898.13;;;9.63;94.65
36932;BME280;22847;42.654;23.370;2023-05-10T01:48:17;94860.66;;;9.35;93.90
36932;BME280;22847;42.654;23.370;2023-05-10T01:50:46;94888.69;;;9.22;93.11
36932;BME280;22847;42.654;23.370;2023-05-10T01:53:13;94934.16;;;9.58;92.90
36932;BME280;22847;42.654;23.370;2023-05-10T01:55:46;94907.63;;;9.33;91.79
36932;BME280;22847;42.654;23.370;2023-05-10T01:58:22;94790.91;;;8.49;90.05
36932;BME280;22847;42.654;23.370;2023-05-10T02:00:49;94909.69;;;9.39;91.96
36932;BME280;22847;42.654;23.370;2023-05-10T02:03:18;94892.91;;;9.53;92.36
36932;BME280;22847;42.654;23.370;2023-05-10T02:05:48;94949.53;;;9.70;89.57
36932;BME280;22847;42.654;23.370;2023-05-10T02:08:16;94907.66;;;8.82;88.67
36932;BME280;22847;42.654;23.370;2023-05-10T02:10:45;94895.66;;;8.70;90.47
36932;BME280;22847;42.654;23.370;2023-05-10T02:13:11;94958.31;;;8.67;90.71
36932;BME280;22847;42.654;23.370;2023-05-10T02:15:38;94817.44;;;8.11;88.60
36932;BME280;22847;42.654;23.370;2023-05-10T02:18:05;94899.09;;;8.18;90.33
36932;BME280;22847;42.654;23.370;2023-05-10T02:20:32;94818.44;;;7.99;87.75
36932;BME280;22847;42.654;23.370;2023-05-10T02:22:59;94910.69;;;8.67;87.00
36932;BME280;22847;42.654;23.370;2023-05-10T02:25:26;94710.97;;;7.17;85.99
36932;BME280;22847;42.654;23.370;2023-05-10T02:27:55;94911.72;;;8.55;88.16
36932;BME280;22847;42.654;23.370;2023-05-10T02:30:22;94885.75;;;8.23;83.08
36932;BME280;22847;42.654;23.370;2023-05-10T02:32:49;94912.88;;;8.92;83.31
36932;BME280;22847;42.654;23.370;2023-05-10T02:35:16;94921.94;;;8.46;80.65
36932;BME280;22847;42.654;23.370;2023-05-10T02:37:41;94775.53;;;7.31;81.75
36932;BME280;22847;42.654;23.370;2023-05-10T02:40:09;94944.47;;;8.46;81.90
36932;BME280;22847;42.654;23.370;2023-05-10T02:42:37;94800.00;;;7.81;81.81
36932;BME280;22847;42.654;23.370;2023-05-10T02:45:16;94907.09;;;8.37;80.55
36932;BME280;22847;42.654;23.370;2023-05-10T02:47:42;94924.19;;;8.29;79.46
36932;BME280;22847;42.654;23.370;2023-05-10T02:50:09;94795.03;;;8.10;80.55
36932;BME280;22847;42.654;23.370;2023-05-10T02:52:50;94777.28;;;7.42;78.19
36932;BME280;22847;42.654;23.370;2023-05-10T02:55:22;94910.75;;;8.56;82.58
36932;BME280;22847;42.654;23.370;2023-05-10T02:57:59;94943.53;;;8.68;78.75
36932;BME280;22847;42.654;23.370;2023-05-10T03:00:25;94732.91;;;7.13;79.52
36932;BME280;22847;42.654;23.370;2023-05-10T03:02:51;94909.47;;;8.29;78.62
36932;BME280;22847;42.654;23.370;2023-05-10T03:05:17;94892.16;;;8.60;77.63
36932;BME280;22847;42.654;23.370;2023-05-10T03:07:43;94944.69;;;8.54;78.59
36932;BME280;22847;42.654;23.370;2023-05-10T03:10:09;94893.59;;;7.69;81.56
36932;BME280;22847;42.654;23.370;2023-05-10T03:13:01;94940.94;;;8.04;82.35
36932;BME280;22847;42.654;23.370;2023-05-10T03:18:23;94940.50;;;8.42;80.73
36932;BME280;22847;42.654;23.370;2023-05-10T03:20:57;94954.03;;;8.02;80.87
36932;BME280;22847;42.654;23.370;2023-05-10T03:23:27;94932.03;;;7.75;82.47
36932;BME280;22847;42.654;23.370;2023-05-10T03:25:53;94934.66;;;8.06;82.29
36932;BME280;22847;42.654;23.370;2023-05-10T03:28:20;94635.09;;;5.96;81.96
36932;BME280;22847;42.654;23.370;2023-05-10T03:30:46;94946.88;;;7.84;83.35
36932;BME280;22847;42.654;23.370;2023-05-10T03:33:12;94837.81;;;7.20;83.48
36932;BME280;22847;42.654;23.370;2023-05-10T03:35:38;94910.06;;;7.90;81.36
36932;BME280;22847;42.654;23.370;2023-05-10T03:38:04;94899.94;;;7.87;81.59
36932;BME280;22847;42.654;23.370;2023-05-10T03:40:29;94946.19;;;7.82;80.49
36932;BME280;22847;42.654;23.370;2023-05-10T03:42:57;94893.09;;;7.75;82.17
36932;BME280;22847;42.654;23.370;2023-05-10T03:45:22;94945.31;;;8.46;80.98
36932;BME280;22847;42.654;23.370;2023-05-10T03:47:48;94905.53;;;8.35;79.97
36932;BME280;22847;42.654;23.370;2023-05-10T03:50:13;94957.09;;;8.50;81.25
36932;BME280;22847;42.654;23.370;2023-05-10T03:52:39;94842.56;;;7.90;80.62
36932;BME280;22847;42.654;23.370;2023-05-10T03:55:05;94950.69;;;8.55;80.97
36932;BME280;22847;42.654;23.370;2023-05-10T03:57:31;94960.75;;;8.48;81.77
36932;BME280;22847;42.654;23.370;2023-05-10T03:59:57;94910.88;;;8.75;79.50
36932;BME280;22847;42.654;23.370;2023-05-10T04:02:22;94865.69;;;8.45;78.77
36932;BME280;22847;42.654;23.370;2023-05-10T04:04:48;94775.81;;;8.22;82.01
36932;BME280;22847;42.654;23.370;2023-05-10T04:07:13;94533.66;;;6.88;76.01
36932;BME280;22847;42.654;23.370;2023-05-10T04:09:40;94961.13;;;9.26;76.17
36932;BME280;22847;42.654;23.370;2023-05-10T04:12:05;94974.72;;;8.88;78.76
36932;BME280;22847;42.654;23.370;2023-05-10T04:14:31;94803.88;;;7.55;79.66
36932;BME280;22847;42.654;23.370;2023-05-10T04:16:56;94934.91;;;8.46;79.98
36932;BME280;22847;42.654;23.370;2023-05-10T04:19:22;94952.06;;;8.27;81.44
36932;BME280;22847;42.654;23.370;2023-05-10T04:21:47;94910.31;;;7.76;83.73
36932;BME280;22847;42.654;23.370;2023-05-10T04:24:13;94964.25;;;8.37;82.52
36932;BME280;22847;42.654;23.370;2023-05-10T04:26:38;94951.25;;;8.37;82.06
36932;BME280;22847;42.654;23.370;2023-05-10T04:29:03;94802.66;;;7.27;83.45
36932;BME280;22847;42.654;23.370;2023-05-10T04:31:29;94795.53;;;7.51;82.60
36932;BME280;22847;42.654;23.370;2023-05-10T04:33:54;94978.75;;;8.40;81.29
36932;BME280;22847;42.654;23.370;2023-05-10T04:36:20;94801.56;;;7.41;81.39
36932;BME280;22847;42.654;23.370;2023-05-10T04:38:45;94953.91;;;8.47;81.32
36932;BME280;22847;42.654;23.370;2023-05-10T04:41:10;94789.69;;;7.16;82.11
36932;BME280;22847;42.654;23.370;2023-05-10T04:43:37;94868.84;;;7.53;83.71
36932;BME280;22847;42.654;23.370;2023-05-10T04:46:03;94958.25;;;8.58;81.73
36932;BME280;22847;42.654;23.370;2023-05-10T04:48:29;94956.50;;;8.04;83.62
36932;BME280;22847;42.654;23.370;2023-05-10T04:50:55;94974.53;;;8.28;83.11
36932;BME280;22847;42.654;23.370;2023-05-10T04:53:20;95001.59;;;8.03;83.58
36932;BME280;22847;42.654;23.370;2023-05-10T04:55:45;94822.47;;;7.28;83.49
36932;BME280;22847;42.654;23.370;2023-05-10T04:58:12;94962.72;;;8.24;83.79
36932;BME280;22847;42.654;23.370;2023-05-10T05:00:37;94953.81;;;8.05;83.79
36932;BME280;22847;42.654;23.370;2023-05-10T05:03:21;94967.72;;;8.47;82.93
36932;BME280;22847;42.654;23.370;2023-05-10T05:05:47;94667.75;;;6.75;82.41
36932;BME280;22847;42.654;23.370;2023-05-10T05:08:12;94804.47;;;7.79;81.41
36932;BME280;22847;42.654;23.370;2023-05-10T05:10:38;94948.44;;;8.82;80.98
36932;BME280;22847;42.654;23.370;2023-05-10T05:13:03;94967.25;;;8.54;82.78
36932;BME280;22847;42.654;23.370;2023-05-10T05:15:29;94951.88;;;8.19;82.85
36932;BME280;22847;42.654;23.370;2023-05-10T05:17:55;94964.56;;;8.44;83.98
36932;BME280;22847;42.654;23.370;2023-05-10T05:20:21;94984.72;;;8.51;83.24
36932;BME280;22847;42.654;23.370;2023-05-10T05:22:46;94848.75;;;7.67;84.94
36932;BME280;22847;42.654;23.370;2023-05-10T05:25:11;94990.19;;;8.69;83.25
36932;BME280;22847;42.654;23.370;2023-05-10T05:27:37;94967.09;;;8.23;84.65
36932;BME280;22847;42.654;23.370;2023-05-10T05:30:03;94978.28;;;8.35;84.28
36932;BME280;22847;42.654;23.370;2023-05-10T05:32:29;94975.97;;;8.10;85.08
36932;BME280;22847;42.654;23.370;2023-05-10T05:34:55;94929.88;;;7.91;85.08
36932;BME280;22847;42.654;23.370;2023-05-10T05:37:21;94992.31;;;8.43;85.21
36932;BME280;22847;42.654;23.370;2023-05-10T05:39:47;94848.09;;;7.53;84.36
36932;BME280;22847;42.654;23.370;2023-05-10T05:42:13;94991.94;;;8.05;86.47
36932;BME280;22847;42.654;23.370;2023-05-10T05:44:39;94806.16;;;7.37;85.59
36932;BME280;22847;42.654;23.370;2023-05-10T05:47:05;94973.72;;;8.80;83.58
36932;BME280;22847;42.654;23.370;2023-05-10T05:49:31;94983.09;;;8.71;84.69
36932;BME280;22847;42.654;23.370;2023-05-10T05:52:00;95018.22;;;8.66;85.74
36932;BME280;22847;42.654;23.370;2023-05-10T05:54:26;94854.78;;;7.99;84.14
36932;BME280;22847;42.654;23.370;2023-05-10T05:56:56;94985.41;;;8.85;84.44
36932;BME280;22847;42.654;23.370;2023-05-10T05:59:22;94945.81;;;9.03;83.25
36932;BME280;22847;42.654;23.370;2023-05-10T06:01:48;94979.34;;;9.26;83.11
36932;BME280;22847;42.654;23.370;2023-05-10T06:04:13;94974.38;;;8.72;85.18
36932;BME280;22847;42.654;23.370;2023-05-10T06:06:39;94961.28;;;8.42;86.27
36932;BME280;22847;42.654;23.370;2023-05-10T06:09:04;94960.88;;;8.15;88.00
36932;BME280;22847;42.654;23.370;2023-05-10T06:11:30;94868.69;;;7.77;88.53
36932;BME280;22847;42.654;23.370;2023-05-10T06:13:57;94848.75;;;7.67;87.75
36932;BME280;22847;42.654;23.370;2023-05-10T06:16:23;94966.00;;;8.26;87.94
36932;BME280;22847;42.654;23.370;2023-05-10T06:18:49;94821.47;;;7.40;88.50
36932;BME280;22847;42.654;23.370;2023-05-10T06:21:14;94743.41;;;7.43;85.95
36932;BME280;22847;42.654;23.370;2023-05-10T06:23:40;95004.25;;;8.78;85.12
36932;BME280;22847;42.654;23.370;2023-05-10T06:26:05;94996.28;;;8.59;86.07
36932;BME280;22847;42.654;23.370;2023-05-10T06:28:31;94865.75;;;7.71;86.88
36932;BME280;22847;42.654;23.370;2023-05-10T06:30:57;94997.06;;;9.12;85.32
36932;BME280;22847;42.654;23.370;2023-05-10T06:33:22;95011.66;;;9.03;84.13
36932;BME280;22847;42.654;23.370;2023-05-10T06:35:48;95026.69;;;9.41;83.48
36932;BME280;22847;42.654;23.370;2023-05-10T06:38:13;95018.94;;;9.30;82.75
36932;BME280;22847;42.654;23.370;2023-05-10T06:40:42;95009.25;;;9.62;80.65
36932;BME280;22847;42.654;23.370;2023-05-10T06:43:08;94985.94;;;9.10;82.81
36932;BME280;22847;42.654;23.370;2023-05-10T06:45:33;95007.91;;;8.75;84.65
36932;BME280;22847;42.654;23.370;2023-05-10T06:47:58;95040.94;;;9.05;83.66
36932;BME280;22847;42.654;23.370;2023-05-10T06:50:24;94996.06;;;9.03;81.97
36932;BME280;22847;42.654;23.370;2023-05-10T06:52:50;94999.44;;;9.45;81.21
36932;BME280;22847;42.654;23.370;2023-05-10T06:55:15;95025.53;;;9.34;81.73
36932;BME280;22847;42.654;23.370;2023-05-10T06:57:41;95000.91;;;9.68;81.02
36932;BME280;22847;42.654;23.370;2023-05-10T07:00:07;94964.41;;;9.28;79.69
36932;BME280;22847;42.654;23.370;2023-05-10T07:02:34;94994.91;;;9.68;78.53
36932;BME280;22847;42.654;23.370;2023-05-10T07:04:59;95004.84;;;9.32;79.15
36932;BME280;22847;42.654;23.370;2023-05-10T07:07:25;94972.78;;;8.81;80.85
36932;BME280;22847;42.654;23.370;2023-05-10T07:09:50;94963.88;;;8.83;81.12
36932;BME280;22847;42.654;23.370;2023-05-10T07:12:16;94995.00;;;8.53;80.97
36932;BME280;22847;42.654;23.370;2023-05-10T07:14:42;94930.50;;;8.15;81.82
36932;BME280;22847;42.654;23.370;2023-05-10T07:17:07;95017.34;;;8.76;81.22
36932;BME280;22847;42.654;23.370;2023-05-10T07:19:33;94976.41;;;8.26;81.60
36932;BME280;22847;42.654;23.370;2023-05-10T07:21:59;95018.69;;;9.12;79.56
36932;BME280;22847;42.654;23.370;2023-05-10T07:24:24;95021.72;;;8.96;79.59
36932;BME280;22847;42.654;23.370;2023-05-10T07:26:50;95037.03;;;9.31;80.13
36932;BME280;22847;42.654;23.370;2023-05-10T07:29:15;95037.66;;;9.45;78.83
36932;BME280;22847;42.654;23.370;2023-05-10T07:31:41;95015.47;;;9.71;78.43
36932;BME280;22847;42.654;23.370;2023-05-10T07:34:08;94980.00;;;9.79;76.99
36932;BME280;22847;42.654;23.370;2023-05-10T07:36:34;94868.66;;;8.82;76.51
36932;BME280;22847;42.654;23.370;2023-05-10T07:38:59;95012.47;;;8.83;79.61
36932;BME280;22847;42.654;23.370;2023-05-10T07:41:24;95020.91;;;8.75;80.31
36932;BME280;22847;42.654;23.370;2023-05-10T07:43:50;95010.19;;;8.69;80.81
36932;BME280;22847;42.654;23.370;2023-05-10T07:46:15;95006.84;;;8.99;80.48
36932;BME280;22847;42.654;23.370;2023-05-10T07:48:41;95033.13;;;9.47;79.46
36932;BME280;22847;42.654;23.370;2023-05-10T07:51:06;94835.66;;;8.32;79.09
36932;BME280;22847;42.654;23.370;2023-05-10T07:53:34;95062.06;;;9.23;79.12
36932;BME280;22847;42.654;23.370;2023-05-10T07:58:47;95066.72;;;9.08;81.00
36932;BME280;22847;42.654;23.370;2023-05-10T08:01:13;95006.09;;;8.87;80.66
36932;BME280;22847;42.654;23.370;2023-05-10T08:03:38;95032.97;;;9.18;79.03
36932;BME280;22847;42.654;23.370;2023-05-10T08:06:04;94563.34;;;6.20;78.99
36932;BME280;22847;42.654;23.370;2023-05-10T08:08:29;94932.25;;;8.58;79.70
36932;BME280;22847;42.654;23.370;2023-05-10T08:10:55;95022.66;;;9.37;78.53
36932;BME280;22847;42.654;23.370;2023-05-10T08:13:21;94983.94;;;9.13;79.13
36932;BME280;22847;42.654;23.370;2023-05-10T08:15:46;94887.94;;;8.59;78.65
36932;BME280;22847;42.654;23.370;2023-05-10T08:18:12;95064.38;;;9.47;78.96
36932;BME280;22847;42.654;23.370;2023-05-10T08:20:38;95024.16;;;9.09;79.77
36932;BME280;22847;42.654;23.370;2023-05-10T08:23:03;94875.66;;;8.08;78.99
36932;BME280;22847;42.654;23.370;2023-05-10T08:25:28;95045.69;;;9.32;79.22
36932;BME280;22847;42.654;23.370;2023-05-10T08:27:54;95037.00;;;9.52;78.85
36932;BME280;22847;42.654;23.370;2023-05-10T08:30:19;94923.50;;;8.59;79.72
36932;BME280;22847;42.654;23.370;2023-05-10T08:32:45;95039.66;;;9.31;79.97
36932;BME280;22847;42.654;23.370;2023-05-10T08:35:10;94857.50;;;8.29;80.08
36932;BME280;22847;42.654;23.370;2023-05-10T08:37:36;94878.53;;;8.88;77.82
36932;BME280;22847;42.654;23.370;2023-05-10T08:40:01;94886.69;;;8.22;79.57
36932;BME280;22847;42.654;23.370;2023-05-10T08:42:28;95067.06;;;9.35;79.46
36932;BME280;22847;42.654;23.370;2023-05-10T08:44:56;94933.47;;;9.25;77.84
36932;BME280;22847;42.654;23.370;2023-05-10T08:47:22;95014.84;;;9.58;78.00
36932;BME280;22847;42.654;23.370;2023-05-10T08:49:48;95045.88;;;10.10;77.78
36932;BME280;22847;42.654;23.370;2023-05-10T08:52:17;95048.53;;;9.80;78.09
36932;BME280;22847;42.654;23.370;2023-05-10T08:54:43;95040.25;;;10.05;77.43
36932;BME280;22847;42.654;23.370;2023-05-10T08:57:10;94855.31;;;8.45;79.61
36932;BME280;22847;42.654;23.370;2023-05-10T08:59:36;95040.59;;;9.30;80.82
36932;BME280;22847;42.654;23.370;2023-05-10T09:02:04;95047.75;;;9.59;78.11
36932;BME280;22847;42.654;23.370;2023-05-10T09:04:30;94760.06;;;7.41;80.35
36932;BME280;22847;42.654;23.370;2023-05-10T09:06:56;95070.59;;;9.55;79.70
36932;BME280;22847;42.654;23.370;2023-05-10T09:09:23;95012.50;;;9.04;80.63
36932;BME280;22847;42.654;23.370;2023-05-10T09:11:49;95078.22;;;9.68;79.12
36932;BME280;22847;42.654;23.370;2023-05-10T09:14:15;95030.75;;;9.13;80.03
36932;BME280;22847;42.654;23.370;2023-05-10T09:16:42;95008.63;;;9.79;78.04
36932;BME280;22847;42.654;23.370;2023-05-10T09:19:08;94884.72;;;8.97;77.89
36932;BME280;22847;42.654;23.370;2023-05-10T09:21:35;95037.56;;;9.56;78.27
36932;BME280;22847;42.654;23.370;2023-05-10T09:24:04;95044.44;;;9.87;78.68
36932;BME280;22847;42.654;23.370;2023-05-10T09:26:30;95015.63;;;9.49;80.09
36932;BME280;22847;42.654;23.370;2023-05-10T09:28:57;94775.25;;;8.19;80.15
36932;BME280;22847;42.654;23.370;2023-05-10T09:31:24;94962.09;;;9.25;79.88
36932;BME280;22847;42.654;23.370;2023-05-10T09:33:51;95004.59;;;9.35;79.55
36932;BME280;22847;42.654;23.370;2023-05-10T09:36:17;95057.28;;;9.79;80.03
36932;BME280;22847;42.654;23.370;2023-05-10T09:38:49;94901.16;;;9.28;78.67
36932;BME280;22847;42.654;23.370;2023-05-10T09:41:21;95029.66;;;9.97;78.44
36932;BME280;22847;42.654;23.370;2023-05-10T09:43:47;94953.13;;;9.79;75.83
36932;BME280;22847;42.654;23.370;2023-05-10T09:46:12;94864.66;;;8.78;78.26
36932;BME280;22847;42.654;23.370;2023-05-10T09:48:48;95020.59;;;9.92;76.38
36932;BME280;22847;42.654;23.370;2023-05-10T09:51:24;95045.53;;;9.54;78.44
36932;BME280;22847;42.654;23.370;2023-05-10T09:54:15;95020.31;;;9.85;77.88
36932;BME280;22847;42.654;23.370;2023-05-10T09:56:42;95028.31;;;10.03;76.34
36932;BME280;22847;42.654;23.370;2023-05-10T09:59:11;94997.16;;;10.22;74.75
36932;BME280;22847;42.654;23.370;2023-05-10T10:01:38;95024.47;;;9.97;76.96
36932;BME280;22847;42.654;23.370;2023-05-10T10:04:05;94938.72;;;9.35;76.14
36932;BME280;22847;42.654;23.370;2023-05-10T10:06:40;95007.88;;;9.98;77.39
36932;BME280;22847;42.654;23.370;2023-05-10T10:09:06;95013.59;;;9.92;77.31
36932;BME280;22847;42.654;23.370;2023-05-10T10:11:38;94928.78;;;9.59;77.30
36932;BME280;22847;42.654;23.370;2023-05-10T10:14:05;94837.47;;;9.22;76.46
36932;BME280;22847;42.654;23.370;2023-05-10T10:16:31;94850.28;;;9.14;76.24
36932;BME280;22847;42.654;23.370;2023-05-10T10:18:57;94993.91;;;10.09;77.86
36932;BME280;22847;42.654;23.370;2023-05-10T10:21:23;94967.16;;;9.97;75.76
36932;BME280;22847;42.654;23.370;2023-05-10T10:23:49;94998.94;;;10.41;75.52
36932;BME280;22847;42.654;23.370;2023-05-10T10:26:17;94842.25;;;9.67;74.20
36932;BME280;22847;42.654;23.370;2023-05-10T10:31:52;94993.97;;;10.18;76.78
36932;BME280;22847;42.654;23.370;2023-05-10T10:34:29;94856.53;;;9.32;75.54
36932;BME280;22847;42.654;23.370;2023-05-10T10:36:56;94862.63;;;9.12;76.80
36932;BME280;22847;42.654;23.370;2023-05-10T10:39:23;94988.84;;;10.07;75.93
36932;BME280;22847;42.654;23.370;2023-05-10T10:41:54;95022.78;;;10.36;76.31
36932;BME280;22847;42.654;23.370;2023-05-10T10:44:23;95007.75;;;10.40;76.66
36932;BME280;22847;42.654;23.370;2023-05-10T10:47:10;95005.53;;;10.64;75.09
36932;BME280;22847;42.654;23.370;2023-05-10T10:50:06;94829.59;;;9.53;74.18
36932;BME280;22847;42.654;23.370;2023-05-10T10:52:34;95009.69;;;10.66;74.91
36932;BME280;22847;42.654;23.370;2023-05-10T11:00:31;95001.72;;;10.87;73.52
36932;BME280;22847;42.654;23.370;2023-05-10T11:03:04;95022.56;;;11.06;72.90
36932;BME280;22847;42.654;23.370;2023-05-10T11:05:49;95006.59;;;11.29;71.75
36932;BME280;22847;42.654;23.370;2023-05-10T11:15:54;95003.06;;;10.82;73.80
36932;BME280;22847;42.654;23.370;2023-05-10T11:18:23;95009.38;;;11.08;73.25
36932;BME280;22847;42.654;23.370;2023-05-10T11:20:51;94989.06;;;10.92;73.61
36932;BME280;22847;42.654;23.370;2023-05-10T11:23:16;94816.47;;;9.83;73.50
36932;BME280;22847;42.654;23.370;2023-05-10T11:25:45;94946.22;;;10.18;75.45
36932;BME280;22847;42.654;23.370;2023-05-10T11:28:11;95012.28;;;10.95;74.44
36932;BME280;22847;42.654;23.370;2023-05-10T11:30:41;95020.13;;;10.76;73.74
36932;BME280;22847;42.654;23.370;2023-05-10T11:33:08;95006.81;;;10.89;74.17
36932;BME280;22847;42.654;23.370;2023-05-10T11:35:40;95003.34;;;10.59;75.08
36932;BME280;22847;42.654;23.370;2023-05-10T11:38:07;95008.28;;;10.91;74.83
36932;BME280;22847;42.654;23.370;2023-05-10T11:40:33;94819.88;;;9.64;74.22
36932;BME280;22847;42.654;23.370;2023-05-10T11:42:58;94970.81;;;10.54;74.93
36932;BME280;22847;42.654;23.370;2023-05-10T11:45:24;94986.19;;;10.47;75.75
36932;BME280;22847;42.654;23.370;2023-05-10T11:47:50;94807.66;;;9.46;76.03
36932;BME280;22847;42.654;23.370;2023-05-10T11:50:16;94819.22;;;9.72;74.29
36932;BME280;22847;42.654;23.370;2023-05-10T11:52:42;95008.16;;;10.83;75.24
36932;BME280;22847;42.654;23.370;2023-05-10T11:55:07;95013.63;;;11.09;74.04
36932;BME280;22847;42.654;23.370;2023-05-10T11:57:33;94985.75;;;10.33;75.76
36932;BME280;22847;42.654;23.370;2023-05-10T11:59:58;94995.25;;;11.10;73.68
36932;BME280;22847;42.654;23.370;2023-05-10T12:02:24;95010.22;;;10.89;75.04
36932;BME280;22847;42.654;23.370;2023-05-10T12:04:50;95001.16;;;10.64;75.67
36932;BME280;22847;42.654;23.370;2023-05-10T12:07:16;94940.78;;;10.21;76.42
36932;BME280;22847;42.654;23.370;2023-05-10T12:10:05;94993.34;;;10.84;75.07
36932;BME280;22847;42.654;23.370;2023-05-10T12:12:57;94994.28;;;10.73;75.75
36932;BME280;22847;42.654;23.370;2023-05-10T12:15:24;94990.44;;;10.67;75.82
36932;BME280;22847;42.654;23.370;2023-05-10T12:17:50;94956.69;;;10.47;75.93
36932;BME280;22847;42.654;23.370;2023-05-10T12:20:23;94995.53;;;10.98;75.35
36932;BME280;22847;42.654;23.370;2023-05-10T12:22:52;94985.75;;;11.09;73.48
36932;BME280;22847;42.654;23.370;2023-05-10T12:25:18;94977.78;;;11.21;74.40
36932;BME280;22847;42.654;23.370;2023-05-10T12:27:51;95001.13;;;11.12;73.12
36932;BME280;22847;42.654;23.370;2023-05-10T12:30:28;94846.13;;;10.40;71.94
36932;BME280;22847;42.654;23.370;2023-05-10T12:32:59;94971.94;;;11.36;72.54
36932;BME280;22847;42.654;23.370;2023-05-10T12:35:25;94977.28;;;11.44;72.09
36932;BME280;22847;42.654;23.370;2023-05-10T12:37:51;94966.75;;;11.27;72.91
36932;BME280;22847;42.654;23.370;2023-05-10T12:40:17;94963.81;;;11.49;72.56
36932;BME280;22847;42.654;23.370;2023-05-10T12:42:42;94804.09;;;10.62;71.61
36932;BME280;22847;42.654;23.370;2023-05-10T12:45:10;94815.88;;;10.66;71.71
36932;BME280;22847;42.654;23.370;2023-05-10T12:47:37;94963.88;;;11.76;71.29
36932;BME280;22847;42.654;23.370;2023-05-10T12:50:03;94954.38;;;11.38;71.30
36932;BME280;22847;42.654;23.370;2023-05-10T12:52:28;94983.44;;;11.16;71.08
36932;BME280;22847;42.654;23.370;2023-05-10T12:54:54;94970.91;;;11.10;72.58
36932;BME280;22847;42.654;23.370;2023-05-10T12:57:20;94858.56;;;10.65;72.28
36932;BME280;22847;42.654;23.370;2023-05-10T12:59:46;94912.34;;;11.32;71.25
36932;BME280;22847;42.654;23.370;2023-05-10T13:02:11;94894.47;;;10.90;72.36
36932;BME280;22847;42.654;23.370;2023-05-10T13:04:37;94926.69;;;11.08;72.59
36932;BME280;22847;42.654;23.370;2023-05-10T13:07:06;94944.19;;;11.35;72.22
36932;BME280;22847;42.654;23.370;2023-05-10T13:09:31;94920.97;;;10.86;72.20
36932;BME280;22847;42.654;23.370;2023-05-10T13:11:57;94885.03;;;10.80;73.04
36932;BME280;22847;42.654;23.370;2023-05-10T13:14:22;94928.31;;;11.19;72.67
36932;BME280;22847;42.654;23.370;2023-05-10T13:16:47;94936.78;;;11.31;72.02
36932;BME280;22847;42.654;23.370;2023-05-10T13:19:14;94901.38;;;11.28;71.68
36932;BME280;22847;42.654;23.370;2023-05-10T13:21:39;94931.84;;;11.37;71.84
36932;BME280;22847;42.654;23.370;2023-05-10T13:24:06;94883.94;;;11.19;72.06
36932;BME280;22847;42.654;23.370;2023-05-10T13:26:32;94912.53;;;11.21;72.71
36932;BME280;22847;42.654;23.370;2023-05-10T13:28:57;94898.69;;;11.10;72.51